Pelkie, MI

5:03 AM EDT on September 03, 2014 (GMT -0400)
MQT_Meso BARAGA | Change Station
CLOSE
Current Station
Personal Weather Station
Location: Baraga, MI
Elevation: 614 ft
Nearby Weather Stations

Elev 614 ft 46.77 °N, 88.49 °W | Updated 53 minutes ago

Partly Cloudy
Partly Cloudy
55 °F
Feels Like 55 °F
N
3
Wind Variable Wind from SW
Gusts 0.0 mph

Today
High -- | Low -- °F
--% Chance of Precip.
Yesterday
High -- | Low -- °F
Precip. -- in
7:16 AM 8:29 PM
First Quarter, 60% visible
Pressure 29.84 in
Visibility 10.0 miles
Clouds Mostly Cloudy 9000 ft
Overcast 10000 ft
Dew Point 55 °F
Humidity 99%
Rainfall -999.00 in
Snow Depth Not available.
UV 0 out of 12
Pollen 8.80 out of 12
Air Quality Not available.
Flu Activity Not available.
METAR KCMX 030853Z AUTO 22003KT 10SM BKN090 OVC100 14/12 A2984 RMK AO2 RAB21E47 SLP103 P0003 60003 T01440117 53001

More Conditions Fewer Conditions

Pressure 29.84 in
Visibility 10.0 miles
Clouds Mostly Cloudy 9000 ft
Overcast 10000 ft
Dew Point 55 °F
Humidity 99%
Rainfall -999.00 in
Snow Depth Not available.
UV 0 out of 12
Pollen 8.80 out of 12
Air Quality Not available.
Flu Activity Not available.
METAR KCMX 030853Z AUTO 22003KT 10SM BKN090 OVC100 14/12 A2984 RMK AO2 RAB21E47 SLP103 P0003 60003 T01440117 53001

More Conditions Fewer Conditions

10-Day Weather Forecast

Almanac

Astronomy

Sep. 03, 2014 Rise Set
Actual Time 7:16 AM EDT 8:29 PM EDT
Civil Twilight 6:45 AM EDT 9:01 PM EDT
Nautical Twilight 6:08 AM EDT 9:38 PM EDT
Astronomical Twilight 5:28 AM EDT 10:18 PM EDT
Moon 4:23 PM EDT 12:59 AM EDT
Length of Visible Light 14h 15m
Length of Day
13h 13m
Tomorrow will be 3m 14s shorter.
First Quarter, 60% of the Moon is Illuminated
Today
First Quarter
Sep 8
Full
Sep 15
Last Quarter
Sep 24
New
Oct 1
First Quarter

Today's Extremes

State Highs State Lows

Community

WunderPhotos

Upload Photos

1,749,902 photos uploaded!

Nearby

Snow Depth

Station Depth Elevation
No new snow has been reported.

Earthquake Activity

City Distance Mag. Time & Date
No recent earthquake activity has been reported nearby.
Minimum magnitude displayed is 2.5.

Coastal Water Temperatures

Place Temperature
No Stations Reporting

Nearby Weather Stations